Time;durP1;ratioP1;P1;durP2;ratioP2;P2;SDS_P1;SDS_P2;PMS_P1;PMS_P2;Temp;Humidity;BMP_temperature;BMP_pressure;BME280_temperature;BME280_humidity;BME280_pressure;Samples;Min_cycle;Max_cycle;Signal;HPM_P1;HPM_P2
2022/05/08 00:02:25;;;;;;;7.07;4.82;;;16.50;85.00;;;;;;4976387;28;20208;-69
2022/05/08 00:04:53;;;;;;;5.60;4.40;;;16.50;85.00;;;;;;4975603;28;20224;-69
2022/05/08 00:07:20;;;;;;;7.38;4.80;;;16.50;85.00;;;;;;4977893;28;20270;-67
2022/05/08 00:09:49;;;;;;;8.00;5.15;;;16.50;85.20;;;;;;4979399;28;20223;-69
2022/05/08 00:12:17;;;;;;;9.57;5.30;;;16.40;85.40;;;;;;4977752;28;20216;-68
2022/05/08 00:14:46;;;;;;;10.43;4.90;;;16.30;85.50;;;;;;4977048;28;20209;-69
2022/05/08 00:17:14;;;;;;;9.05;5.22;;;16.30;85.80;;;;;;4976520;28;20240;-68
2022/05/08 00:19:41;;;;;;;6.03;4.80;;;16.30;86.00;;;;;;4977807;28;20219;-68
2022/05/08 00:22:08;;;;;;;6.80;4.07;;;16.30;86.20;;;;;;4975838;28;20223;-69
2022/05/08 00:24:35;;;;;;;4.90;4.17;;;16.20;86.40;;;;;;4976815;28;20400;-68
2022/05/08 00:27:02;;;;;;;6.20;5.27;;;16.20;86.40;;;;;;4978142;28;20299;-68
2022/05/08 00:29:29;;;;;;;6.28;4.28;;;16.20;86.70;;;;;;4977782;28;20259;-69
2022/05/08 00:31:58;;;;;;;7.13;4.90;;;16.10;86.80;;;;;;4977842;28;20205;-69
2022/05/08 00:34:25;;;;;;;9.67;6.00;;;16.10;87.20;;;;;;4977117;28;20220;-70
2022/05/08 00:36:52;;;;;;;11.03;5.80;;;16.00;87.50;;;;;;4976062;28;20628;-68
2022/05/08 00:39:20;;;;;;;12.07;6.40;;;15.90;88.00;;;;;;4976918;28;20301;-68
2022/05/08 00:41:47;;;;;;;9.88;6.68;;;15.90;88.60;;;;;;4980993;28;20211;-68
2022/05/08 00:44:14;;;;;;;10.93;7.40;;;15.80;89.00;;;;;;4977018;28;20224;-69
2022/05/08 00:46:41;;;;;;;8.93;6.43;;;15.70;89.40;;;;;;4977455;28;20215;-69
2022/05/08 00:49:09;;;;;;;7.93;6.30;;;15.60;89.60;;;;;;4977523;28;20228;-69
2022/05/08 00:51:36;;;;;;;9.37;6.90;;;15.60;89.80;;;;;;4977725;28;20208;-69
2022/05/08 00:54:04;;;;;;;10.27;6.63;;;15.50;90.10;;;;;;4973458;28;20213;-68
2022/05/08 00:56:32;;;;;;;9.37;6.67;;;15.50;90.20;;;;;;4977027;28;20278;-69
2022/05/08 00:58:59;;;;;;;9.87;6.90;;;15.40;90.20;;;;;;4977083;28;20201;-68
2022/05/08 01:01:26;;;;;;;9.53;6.43;;;15.40;90.40;;;;;;4977574;28;20247;-71
2022/05/08 01:03:53;;;;;;;10.20;7.43;;;15.40;90.50;;;;;;4976041;28;20240;-68
2022/05/08 01:06:21;;;;;;;9.33;6.93;;;15.50;90.60;;;;;;4975936;28;20216;-68
2022/05/08 01:08:50;;;;;;;8.57;6.50;;;15.40;90.70;;;;;;4977709;28;20283;-68
2022/05/08 01:11:18;;;;;;;8.70;7.00;;;15.40;90.80;;;;;;4976575;28;20239;-69
2022/05/08 01:13:46;;;;;;;8.27;7.00;;;15.40;90.80;;;;;;4974875;28;20292;-69
2022/05/08 01:16:14;;;;;;;9.33;6.83;;;15.40;90.90;;;;;;4977505;28;20211;-68
2022/05/08 01:18:41;;;;;;;8.47;6.93;;;15.40;91.10;;;;;;4975579;28;20295;-68
2022/05/08 01:21:10;;;;;;;9.87;6.93;;;15.40;91.10;;;;;;4976237;28;20586;-68
2022/05/08 01:23:39;;;;;;;8.00;6.53;;;15.50;91.20;;;;;;4975451;28;20224;-69
2022/05/08 01:26:06;;;;;;;8.30;6.47;;;15.50;91.20;;;;;;4975553;28;20231;-68
2022/05/08 01:28:33;;;;;;;7.70;6.80;;;15.50;91.10;;;;;;4974837;28;20262;-69
2022/05/08 01:31:00;;;;;;;14.73;7.57;;;15.60;91.10;;;;;;4974715;28;20210;-68
2022/05/08 01:33:28;;;;;;;9.03;6.90;;;15.60;91.00;;;;;;4972420;28;20212;-69
2022/05/08 01:35:56;;;;;;;8.23;6.67;;;15.70;91.00;;;;;;4971713;28;20303;-69
2022/05/08 01:38:25;;;;;;;9.10;6.90;;;15.70;91.00;;;;;;4973910;28;20213;-69
2022/05/08 01:40:54;;;;;;;9.47;6.50;;;15.70;90.90;;;;;;4975426;28;20212;-69
2022/05/08 01:43:21;;;;;;;6.30;5.50;;;15.80;91.00;;;;;;4973154;28;20279;-69
2022/05/08 01:45:48;;;;;;;8.53;6.57;;;15.80;90.90;;;;;;4973919;28;20228;-69
2022/05/08 01:48:23;;;;;;;8.37;5.83;;;15.80;91.00;;;;;;4976869;28;20307;-69
2022/05/08 01:50:51;;;;;;;10.63;6.27;;;15.80;90.60;;;;;;4977826;28;20263;-69
2022/05/08 01:53:19;;;;;;;9.87;6.20;;;15.90;90.50;;;;;;4974954;28;20213;-69
2022/05/08 01:55:49;;;;;;;10.80;6.10;;;15.90;90.50;;;;;;4965183;28;20212;-68
2022/05/08 01:58:17;;;;;;;9.47;6.73;;;15.90;90.50;;;;;;4979151;28;20212;-68
2022/05/08 02:00:44;;;;;;;7.20;5.80;;;16.00;90.70;;;;;;4978522;28;20581;-68
2022/05/08 02:03:13;;;;;;;9.97;6.33;;;16.00;90.70;;;;;;4969849;28;20310;-69
2022/05/08 02:05:41;;;;;;;6.85;6.05;;;16.00;90.70;;;;;;4978217;28;20242;-68
2022/05/08 02:08:08;;;;;;;8.43;6.63;;;16.10;90.80;;;;;;4979118;28;20642;-69
2022/05/08 02:10:35;;;;;;;10.63;6.13;;;16.10;90.90;;;;;;4978965;28;20220;-69
2022/05/08 02:13:02;;;;;;;8.03;6.70;;;16.10;91.00;;;;;;4977538;28;20300;-68
2022/05/08 02:15:31;;;;;;;8.32;6.60;;;16.20;91.00;;;;;;4978903;28;20420;-69
2022/05/08 02:18:01;;;;;;;8.73;6.73;;;16.10;91.00;;;;;;4978433;28;20212;-69
2022/05/08 02:20:28;;;;;;;10.55;6.63;;;16.10;91.10;;;;;;4978494;28;20208;-69
2022/05/08 02:22:55;;;;;;;10.27;6.30;;;16.20;91.20;;;;;;4975514;28;20276;-69
2022/05/08 02:25:22;;;;;;;9.77;7.10;;;16.10;91.20;;;;;;4977041;28;20233;-70
2022/05/08 02:27:51;;;;;;;11.20;6.93;;;16.10;91.30;;;;;;4978072;28;20292;-69
2022/05/08 02:30:19;;;;;;;8.90;6.75;;;16.10;91.30;;;;;;4978487;28;20240;-70
2022/05/08 02:32:49;;;;;;;8.63;6.85;;;16.10;91.30;;;;;;4977958;28;20208;-69
2022/05/08 02:35:17;;;;;;;10.70;7.07;;;16.10;91.40;;;;;;4978754;28;20208;-69
2022/05/08 02:37:44;;;;;;;8.97;7.00;;;16.10;91.50;;;;;;4979187;28;20217;-69
2022/05/08 02:40:11;;;;;;;8.50;6.83;;;16.10;91.50;;;;;;4977982;28;20223;-70
2022/05/08 02:42:39;;;;;;;8.73;7.60;;;16.10;91.60;;;;;;4976690;28;20204;-69
2022/05/08 02:45:08;;;;;;;10.53;6.97;;;16.10;91.70;;;;;;4978305;28;20226;-69
2022/05/08 02:47:36;;;;;;;8.63;6.70;;;16.10;91.70;;;;;;4979572;28;20217;-70
2022/05/08 02:50:05;;;;;;;11.47;7.10;;;16.10;91.80;;;;;;4978413;28;20236;-68
2022/05/08 02:52:32;;;;;;;11.20;7.60;;;16.00;91.70;;;;;;4977651;28;20605;-69
2022/05/08 02:58:32;;;;;;;12.57;7.47;;;16.00;91.70;;;;;;4977418;28;20205;-69
2022/05/08 03:00:36;;;;;;;9.20;7.10;;;15.90;91.90;;;;;;4976394;28;20203;-69
2022/05/08 03:03:05;;;;;;;9.27;6.80;;;15.90;91.60;;;;;;4977026;28;20299;-69
2022/05/08 03:05:33;;;;;;;9.33;6.80;;;15.90;91.60;;;;;;4978146;28;20320;-69
2022/05/08 03:08:01;;;;;;;8.80;7.10;;;15.80;91.50;;;;;;4979327;28;20217;-69
2022/05/08 03:10:28;;;;;;;9.10;6.97;;;15.80;91.60;;;;;;4978311;28;20205;-69
2022/05/08 03:12:55;;;;;;;12.10;7.27;;;15.80;91.60;;;;;;4977982;28;20550;-69
2022/05/08 03:15:23;;;;;;;10.37;7.50;;;15.80;91.60;;;;;;4977769;28;20652;-69
2022/05/08 03:17:50;;;;;;;9.75;7.75;;;15.80;91.60;;;;;;4978808;28;20213;-69
2022/05/08 03:20:17;;;;;;;13.43;8.30;;;15.80;91.60;;;;;;4978750;28;20213;-70
2022/05/08 03:22:45;;;;;;;9.00;7.37;;;15.80;91.60;;;;;;4977082;28;20224;-69
2022/05/08 03:25:12;;;;;;;10.00;7.23;;;15.80;91.70;;;;;;4976891;28;20319;-69
2022/05/08 03:27:39;;;;;;;9.63;7.43;;;15.70;91.70;;;;;;4977827;28;20208;-68
2022/05/08 03:30:07;;;;;;;13.77;7.97;;;15.70;91.80;;;;;;4977619;28;20244;-70
2022/05/08 03:32:34;;;;;;;12.40;7.57;;;15.70;91.90;;;;;;4975806;28;20212;-69
2022/05/08 03:35:03;;;;;;;10.83;7.70;;;15.70;92.00;;;;;;4976761;28;20220;-69
2022/05/08 03:37:29;;;;;;;14.07;7.93;;;15.60;92.10;;;;;;4976803;28;20744;-68
2022/05/08 03:39:58;;;;;;;10.47;7.60;;;15.70;92.40;;;;;;4976788;28;20245;-69
2022/05/08 03:42:24;;;;;;;11.73;7.73;;;15.60;92.50;;;;;;4976527;28;20815;-69
2022/05/08 03:44:53;;;;;;;11.87;8.00;;;15.60;92.50;;;;;;4976882;28;20299;-69
2022/05/08 03:47:20;;;;;;;11.13;7.23;;;15.60;92.60;;;;;;4976469;28;20288;-69
2022/05/08 03:49:47;;;;;;;10.03;7.93;;;15.50;92.70;;;;;;4976545;28;20303;-69
2022/05/08 03:52:14;;;;;;;11.70;8.00;;;15.60;92.90;;;;;;4975851;28;20204;-69
2022/05/08 03:54:41;;;;;;;11.67;8.10;;;15.50;93.00;;;;;;4976303;28;20212;-69
2022/05/08 03:57:09;;;;;;;8.97;7.90;;;15.50;93.40;;;;;;4976703;28;20205;-69
2022/05/08 03:59:36;;;;;;;10.70;7.97;;;15.40;93.80;;;;;;4977483;28;20284;-68
2022/05/08 04:02:03;;;;;;;11.83;8.30;;;15.40;94.40;;;;;;4976054;28;20615;-69
2022/05/08 04:04:31;;;;;;;11.73;7.67;;;15.40;94.50;;;;;;4977017;28;20232;-69
2022/05/08 04:06:57;;;;;;;9.43;7.67;;;15.30;95.10;;;;;;4976425;28;20224;-68
2022/05/08 04:09:24;;;;;;;13.43;8.03;;;15.30;95.80;;;;;;4975534;28;20549;-70
2022/05/08 04:11:51;;;;;;;13.53;8.60;;;15.20;96.20;;;;;;4975397;28;20703;-69
2022/05/08 04:14:20;;;;;;;12.97;7.90;;;15.30;96.80;;;;;;4976246;28;20213;-69
2022/05/08 04:16:48;;;;;;;11.93;7.80;;;15.30;97.30;;;;;;4976788;28;20212;-69
2022/05/08 04:19:14;;;;;;;13.40;8.37;;;15.30;97.50;;;;;;4976765;28;20251;-69
2022/05/08 04:21:41;;;;;;;13.00;7.90;;;15.20;97.40;;;;;;4977289;28;20213;-69
2022/05/08 04:26:52;;;;;;;13.40;8.00;;;15.20;97.70;;;;;;4968648;28;20252;-69
2022/05/08 04:29:20;;;;;;;9.40;8.10;;;15.20;98.10;;;;;;4969578;28;20267;-69
2022/05/08 04:31:47;;;;;;;10.03;7.57;;;15.10;98.40;;;;;;4975067;28;20280;-69
2022/05/08 04:34:14;;;;;;;11.60;8.03;;;15.10;98.80;;;;;;4974187;28;20205;-69
2022/05/08 04:36:41;;;;;;;10.60;7.73;;;15.00;98.80;;;;;;4974045;28;20379;-69
2022/05/08 04:39:08;;;;;;;9.97;8.27;;;15.00;98.90;;;;;;4975385;28;20300;-70
2022/05/08 04:41:35;;;;;;;11.77;8.23;;;15.00;99.20;;;;;;4975256;28;20247;-71
2022/05/08 04:44:01;;;;;;;10.77;8.37;;;14.90;99.40;;;;;;4974476;28;20268;-70
2022/05/08 04:46:31;;;;;;;10.77;8.30;;;14.90;99.50;;;;;;4975362;28;20319;-70
2022/05/08 04:48:58;;;;;;;13.30;9.27;;;14.90;99.80;;;;;;4975666;28;20205;-69
2022/05/08 04:51:25;;;;;;;11.87;8.87;;;14.90;99.90;;;;;;4974498;28;20200;-69
2022/05/08 04:53:52;;;;;;;12.23;9.03;;;14.90;99.90;;;;;;4974726;28;20580;-69
2022/05/08 04:56:19;;;;;;;13.10;9.03;;;14.90;99.90;;;;;;4975221;28;20215;-68
2022/05/08 04:58:46;;;;;;;13.33;8.93;;;15.00;99.90;;;;;;4974862;28;20266;-69
2022/05/08 05:01:12;;;;;;;10.47;9.00;;;15.00;99.90;;;;;;4974058;28;20216;-69
2022/05/08 05:03:41;;;;;;;12.13;8.47;;;15.00;99.90;;;;;;4974578;28;20240;-69
2022/05/08 05:06:08;;;;;;;14.83;9.50;;;15.10;99.90;;;;;;4975015;28;20684;-69
2022/05/08 05:08:35;;;;;;;11.40;9.70;;;15.20;99.90;;;;;;4975041;28;20220;-69
2022/05/08 05:11:01;;;;;;;12.60;9.20;;;15.20;99.90;;;;;;4974647;28;20748;-69
2022/05/08 05:13:28;;;;;;;11.70;9.20;;;15.20;99.90;;;;;;4974798;28;20757;-69
2022/05/08 05:15:55;;;;;;;11.27;8.33;;;15.20;99.90;;;;;;4972884;28;20205;-69
2022/05/08 05:18:22;;;;;;;10.87;9.33;;;15.20;99.90;;;;;;4972084;28;20240;-68
2022/05/08 05:20:50;;;;;;;13.10;9.37;;;15.30;99.90;;;;;;4971681;28;20291;-69
2022/05/08 05:23:17;;;;;;;13.00;9.03;;;15.30;99.90;;;;;;4973628;28;20213;-70
2022/05/08 05:25:44;;;;;;;12.20;9.73;;;15.40;99.90;;;;;;4979117;28;20239;-69
2022/05/08 05:28:11;;;;;;;12.73;8.87;;;15.40;99.90;;;;;;4981224;28;20857;-66
2022/05/08 05:30:38;;;;;;;16.43;10.10;;;15.50;99.90;;;;;;4977252;28;20292;-67
2022/05/08 05:33:07;;;;;;;13.50;10.10;;;15.50;99.90;;;;;;4975998;28;20250;-67
2022/05/08 05:35:37;;;;;;;13.20;9.43;;;15.50;99.90;;;;;;4978002;28;20224;-67
2022/05/08 05:38:06;;;;;;;14.43;9.77;;;15.50;99.90;;;;;;4977665;28;20216;-67
2022/05/08 05:40:32;;;;;;;16.07;9.87;;;15.60;99.90;;;;;;4978577;28;20233;-68
2022/05/08 05:42:59;;;;;;;16.13;10.37;;;15.60;99.90;;;;;;4977009;28;20295;-66
2022/05/08 05:45:26;;;;;;;14.33;10.23;;;15.60;99.90;;;;;;4979328;28;20251;-67
2022/05/08 05:47:59;;;;;;;15.33;10.20;;;15.80;99.90;;;;;;4978942;28;20300;-67
2022/05/08 05:50:27;;;;;;;11.20;9.73;;;15.90;99.90;;;;;;4979154;28;20200;-67
2022/05/08 05:52:54;;;;;;;13.67;10.10;;;16.00;99.90;;;;;;4978222;28;20205;-68
2022/05/08 05:55:22;;;;;;;13.40;9.77;;;16.10;99.90;;;;;;4979662;28;21514;-67
2022/05/08 05:57:49;;;;;;;16.47;10.63;;;16.20;99.90;;;;;;4979119;28;20574;-68
2022/05/08 06:00:17;;;;;;;18.37;9.97;;;16.40;99.90;;;;;;4979487;28;20216;-67
2022/05/08 06:02:46;;;;;;;15.33;10.50;;;16.50;99.90;;;;;;4975925;28;20238;-66
2022/05/08 06:05:14;;;;;;;17.30;9.95;;;16.70;99.90;;;;;;4976654;28;20217;-67
2022/05/08 06:07:42;;;;;;;13.57;9.82;;;16.80;99.90;;;;;;4964218;28;20232;-66
2022/05/08 06:10:11;;;;;;;11.93;8.83;;;16.80;99.90;;;;;;4976844;28;20209;-66
2022/05/08 06:12:39;;;;;;;11.63;8.20;;;16.90;99.90;;;;;;4975589;28;20213;-66
2022/05/08 06:15:08;;;;;;;12.25;6.97;;;16.90;99.90;;;;;;4969038;28;20609;-66
2022/05/08 06:17:35;;;;;;;7.72;6.43;;;17.00;99.90;;;;;;4974048;28;20219;-67
2022/05/08 06:20:02;;;;;;;11.13;7.47;;;17.00;99.90;;;;;;4978070;28;20208;-67
2022/05/08 06:22:29;;;;;;;7.63;6.77;;;17.10;99.90;;;;;;4977603;28;20945;-68
2022/05/08 06:24:57;;;;;;;10.25;6.97;;;17.20;99.90;;;;;;4978614;28;20260;-69
2022/05/08 06:27:25;;;;;;;9.60;6.72;;;17.30;99.90;;;;;;4978410;28;20242;-68
2022/05/08 06:29:53;;;;;;;7.17;6.47;;;17.50;99.90;;;;;;4979127;28;20335;-68
2022/05/08 06:32:21;;;;;;;7.28;5.82;;;17.60;99.80;;;;;;4976311;28;20305;-69
2022/05/08 06:34:48;;;;;;;7.32;5.35;;;17.70;99.60;;;;;;4978018;28;20209;-70
2022/05/08 06:37:15;;;;;;;5.03;4.50;;;17.90;99.40;;;;;;4977722;28;20319;-69
2022/05/08 06:39:42;;;;;;;4.45;3.97;;;18.10;99.10;;;;;;4978646;28;20232;-69
2022/05/08 06:42:09;;;;;;;5.53;3.50;;;18.20;98.40;;;;;;4965891;28;20684;-68
2022/05/08 06:44:36;;;;;;;5.72;3.90;;;18.30;98.00;;;;;;4979525;28;20209;-70
2022/05/08 06:47:05;;;;;;;4.47;3.97;;;18.40;97.80;;;;;;4978426;28;20259;-68
2022/05/08 06:49:32;;;;;;;4.32;3.22;;;18.50;97.60;;;;;;4978734;28;20209;-70
2022/05/08 06:51:59;;;;;;;6.53;3.78;;;18.70;97.10;;;;;;4973482;28;20291;-71
2022/05/08 06:54:26;;;;;;;6.22;4.22;;;18.80;96.70;;;;;;4974182;28;20267;-70
2022/05/08 06:56:55;;;;;;;6.43;3.60;;;19.00;96.40;;;;;;4981293;28;20208;-70
2022/05/08 07:02:10;;;;;;;6.10;4.45;;;19.20;95.90;;;;;;4974528;28;20388;-71
2022/05/08 07:04:37;;;;;;;5.38;3.55;;;19.30;95.40;;;;;;4978516;28;20251;-67
2022/05/08 07:07:04;;;;;;;3.92;3.20;;;19.30;95.00;;;;;;4977611;28;20225;-71
2022/05/08 07:09:32;;;;;;;3.67;3.03;;;19.30;94.60;;;;;;4974182;28;20211;-70
2022/05/08 07:11:59;;;;;;;5.13;2.92;;;19.40;94.20;;;;;;4984622;28;20212;-72
2022/05/08 07:14:26;;;;;;;3.70;3.28;;;19.40;93.90;;;;;;4974923;28;20236;-70
2022/05/08 07:16:53;;;;;;;7.15;3.42;;;19.50;93.70;;;;;;4986332;28;20679;-73
2022/05/08 07:19:21;;;;;;;4.93;3.53;;;19.60;93.60;;;;;;4974192;28;20263;-72
2022/05/08 07:21:48;;;;;;;4.10;3.70;;;19.70;93.50;;;;;;4977060;28;20271;-72
2022/05/08 07:24:15;;;;;;;5.32;4.80;;;19.80;93.20;;;;;;4976121;28;20213;-70
2022/05/08 07:26:45;;;;;;;6.45;3.90;;;19.80;93.10;;;;;;4981526;28;20232;-71
2022/05/08 07:29:12;;;;;;;3.88;3.47;;;19.70;93.00;;;;;;4976180;28;20302;-70
2022/05/08 07:31:39;;;;;;;4.50;3.80;;;19.70;92.80;;;;;;4975287;28;20209;-70
2022/05/08 07:36:52;;;;;;;5.68;3.88;;;19.60;93.00;;;;;;4973094;28;20278;-69
2022/05/08 07:39:19;;;;;;;6.90;4.40;;;19.50;92.80;;;;;;4975706;28;20303;-68
2022/05/08 07:41:46;;;;;;;7.38;5.00;;;19.40;93.00;;;;;;4976333;28;20216;-69
2022/05/08 07:44:12;;;;;;;6.18;4.70;;;19.30;93.30;;;;;;4974382;28;20632;-70
2022/05/08 07:46:39;;;;;;;6.15;4.18;;;19.20;93.40;;;;;;4974192;28;20288;-69
2022/05/08 07:49:08;;;;;;;8.55;4.57;;;19.10;93.70;;;;;;4975288;28;20251;-69
2022/05/08 07:51:35;;;;;;;5.07;4.60;;;18.90;93.80;;;;;;4971517;28;20216;-70
2022/05/08 07:54:04;;;;;;;7.78;5.07;;;18.90;94.10;;;;;;4968252;28;20583;-70
2022/05/08 07:56:30;;;;;;;5.28;4.60;;;18.80;94.10;;;;;;4973474;28;20232;-69
2022/05/08 07:58:57;;;;;;;6.00;4.57;;;18.80;94.40;;;;;;4980400;28;20208;-67
2022/05/08 08:01:24;;;;;;;6.78;4.95;;;18.90;94.50;;;;;;4975080;28;20265;-69
2022/05/08 08:03:51;;;;;;;6.43;5.07;;;18.90;94.60;;;;;;4979377;28;20231;-70
2022/05/08 08:06:18;;;;;;;5.80;5.20;;;18.90;94.50;;;;;;4979483;28;20208;-69
2022/05/08 08:08:45;;;;;;;5.63;4.47;;;18.90;94.40;;;;;;4977144;28;20211;-69
2022/05/08 08:11:13;;;;;;;6.20;4.75;;;19.00;94.30;;;;;;4983560;28;20290;-69
2022/05/08 08:13:40;;;;;;;6.22;4.78;;;19.10;94.20;;;;;;4976043;28;20254;-71
2022/05/08 08:16:08;;;;;;;5.55;4.97;;;19.00;94.20;;;;;;4980366;28;20725;-67
2022/05/08 08:18:35;;;;;;;7.43;4.55;;;19.00;94.20;;;;;;4977245;28;20215;-69
2022/05/08 08:21:03;;;;;;;5.70;4.68;;;19.00;94.20;;;;;;4976542;28;20650;-69
2022/05/08 08:23:30;;;;;;;5.22;4.13;;;19.00;94.40;;;;;;4971283;28;20652;-69
2022/05/08 08:25:57;;;;;;;5.70;4.63;;;19.00;94.00;;;;;;4974887;28;20580;-68
2022/05/08 08:28:25;;;;;;;5.38;4.18;;;19.10;94.00;;;;;;4974727;28;20232;-66
2022/05/08 08:30:52;;;;;;;6.10;4.45;;;19.20;93.80;;;;;;4974410;28;20288;-68
2022/05/08 08:33:19;;;;;;;6.05;4.75;;;19.20;93.50;;;;;;4974463;28;20209;-68
2022/05/08 08:35:46;;;;;;;7.53;4.93;;;19.30;93.60;;;;;;4972756;28;20216;-67
2022/05/08 08:38:14;;;;;;;7.65;5.13;;;19.30;93.60;;;;;;4975825;28;20359;-68
2022/05/08 08:40:42;;;;;;;5.70;5.00;;;19.40;93.80;;;;;;4974902;28;20211;-67
2022/05/08 08:43:11;;;;;;;6.43;4.72;;;19.60;93.60;;;;;;4975009;28;20215;-67
2022/05/08 08:48:29;;;;;;;6.78;4.78;;;19.90;93.00;;;;;;4968561;28;20809;-67
2022/05/08 08:50:57;;;;;;;10.32;4.82;;;20.20;92.70;;;;;;4969894;28;20303;-68
2022/05/08 08:53:25;;;;;;;9.20;5.90;;;20.40;92.50;;;;;;4975153;28;20674;-69
2022/05/08 08:55:53;;;;;;;6.30;4.80;;;20.50;91.80;;;;;;4974900;28;20230;-67
2022/05/08 08:58:21;;;;;;;9.07;4.63;;;20.40;91.40;;;;;;4976378;28;20219;-74
2022/05/08 09:00:50;;;;;;;7.70;4.13;;;20.30;91.50;;;;;;4973652;28;20220;-67
2022/05/08 09:03:25;;;;;;;5.60;4.85;;;20.30;91.60;;;;;;4972638;28;20208;-68
2022/05/08 09:05:54;;;;;;;6.90;4.45;;;20.20;91.40;;;;;;4973150;28;20204;-67
2022/05/08 09:08:28;;;;;;;14.35;5.40;;;20.20;91.10;;;;;;4972990;28;20224;-66
2022/05/08 09:10:57;;;;;;;6.10;4.75;;;20.00;90.80;;;;;;4971712;28;20204;-69
2022/05/08 09:13:26;;;;;;;6.97;4.15;;;20.00;91.10;;;;;;4964704;28;20243;-70
2022/05/08 09:16:02;;;;;;;6.25;4.05;;;20.10;91.30;;;;;;4969426;28;20215;-71
2022/05/08 09:18:29;;;;;;;5.57;3.70;;;20.30;91.00;;;;;;4975143;28;20204;-70
2022/05/08 09:21:54;;;;;;;5.15;3.58;;;20.50;90.60;;;;;;4974392;28;20212;-67
2022/05/08 09:23:44;;;;;;;5.28;3.55;;;20.80;89.80;;;;;;4973875;28;20643;-70
2022/05/08 09:26:13;;;;;;;3.75;3.13;;;21.00;87.90;;;;;;4975336;28;20563;-68
2022/05/08 09:28:41;;;;;;;5.70;3.47;;;21.20;86.60;;;;;;4969545;28;20243;-70
2022/05/08 09:31:10;;;;;;;4.18;2.90;;;21.20;86.40;;;;;;4979112;28;20745;-71
2022/05/08 09:33:39;;;;;;;3.92;3.00;;;21.30;86.00;;;;;;4971802;28;20637;-69
2022/05/08 09:36:08;;;;;;;3.10;2.80;;;21.20;84.70;;;;;;4983954;28;20209;-69
2022/05/08 09:38:50;;;;;;;4.13;2.90;;;21.20;84.40;;;;;;4976889;28;20243;-69
2022/05/08 09:41:20;;;;;;;3.10;2.78;;;21.20;84.40;;;;;;4976893;28;20208;-69
2022/05/08 09:43:47;;;;;;;5.55;3.05;;;21.20;84.30;;;;;;4974025;28;20212;-67
2022/05/08 09:46:17;;;;;;;4.53;3.00;;;21.20;84.00;;;;;;4973943;28;20212;-66
2022/05/08 09:48:44;;;;;;;4.50;3.17;;;21.10;83.90;;;;;;4973072;28;20220;-65
2022/05/08 09:51:12;;;;;;;3.25;2.90;;;21.10;83.70;;;;;;4974415;28;20211;-67
2022/05/08 09:53:40;;;;;;;4.55;3.30;;;21.10;83.40;;;;;;4968020;28;20208;-70
2022/05/08 09:56:09;;;;;;;3.95;3.42;;;21.00;83.60;;;;;;4967775;28;20299;-70
2022/05/08 09:58:36;;;;;;;5.63;2.78;;;20.90;84.40;;;;;;4972929;28;20204;-69
2022/05/08 10:01:04;;;;;;;4.72;3.40;;;20.80;83.80;;;;;;4975883;28;20239;-71
2022/05/08 10:03:32;;;;;;;3.50;2.88;;;20.70;84.30;;;;;;4980468;28;20230;-69
2022/05/08 10:06:00;;;;;;;3.30;3.00;;;20.80;84.70;;;;;;4973886;28;20205;-68
2022/05/08 10:08:30;;;;;;;3.70;3.03;;;20.80;84.40;;;;;;4975710;28;20696;-69
2022/05/08 10:13:57;;;;;;;3.35;3.03;;;20.90;84.40;;;;;;4976110;28;20227;-69
2022/05/08 10:16:47;;;;;;;5.30;3.03;;;20.90;83.70;;;;;;4975267;28;20208;-69
2022/05/08 10:19:46;;;;;;;2.88;2.50;;;20.90;83.90;;;;;;4966935;28;20295;-68
2022/05/08 10:22:14;;;;;;;2.55;2.35;;;20.90;84.20;;;;;;4966681;28;20204;-68
2022/05/08 10:24:51;;;;;;;2.70;2.28;;;20.80;82.90;;;;;;4966679;28;20234;-67
2022/05/08 10:27:20;;;;;;;4.18;2.92;;;20.80;82.80;;;;;;4965967;28;20235;-68
2022/05/08 10:30:30;;;;;;;2.70;2.10;;;20.70;81.90;;;;;;4964946;28;20339;-68
2022/05/08 10:32:57;;;;;;;3.97;1.92;;;20.60;81.00;;;;;;4963064;28;20208;-68
2022/05/08 10:35:27;;;;;;;2.75;2.00;;;20.50;80.60;;;;;;4978923;28;20208;-67
2022/05/08 10:38:21;;;;;;;2.92;1.88;;;20.50;80.70;;;;;;4976745;28;20216;-68
2022/05/08 10:40:49;;;;;;;1.98;1.67;;;20.40;79.60;;;;;;4974791;28;20639;-70
2022/05/08 10:43:26;;;;;;;3.00;2.72;;;20.30;78.80;;;;;;4977064;28;20272;-69
2022/05/08 10:45:53;;;;;;;5.57;2.35;;;20.10;78.50;;;;;;4977369;28;20596;-68
2022/05/08 10:48:21;;;;;;;5.25;2.25;;;20.00;78.40;;;;;;4975655;28;20252;-69
2022/05/08 10:50:51;;;;;;;4.03;2.17;;;19.90;78.50;;;;;;4977507;28;20643;-70
2022/05/08 10:53:27;;;;;;;2.20;1.80;;;19.80;78.70;;;;;;4977679;28;20268;-71
2022/05/08 10:56:00;;;;;;;4.75;2.03;;;19.80;78.90;;;;;;4968747;28;20650;-72
2022/05/08 10:58:27;;;;;;;2.40;2.08;;;19.80;79.00;;;;;;4977375;28;20665;-74
2022/05/08 11:00:57;;;;;;;3.65;2.25;;;19.80;79.90;;;;;;4977954;28;20212;-70
2022/05/08 11:03:25;;;;;;;1.95;1.80;;;19.90;79.50;;;;;;4977595;28;20218;-67
2022/05/08 11:05:54;;;;;;;2.80;1.83;;;20.30;80.30;;;;;;4978127;28;20576;-70
2022/05/08 11:08:27;;;;;;;3.88;2.40;;;21.00;80.00;;;;;;4977156;28;20231;-70
2022/05/08 11:10:59;;;;;;;3.55;2.08;;;21.70;78.60;;;;;;4979491;28;20235;-65
2022/05/08 11:13:36;;;;;;;3.47;1.80;;;22.40;74.60;;;;;;4976559;28;20209;-71
2022/05/08 11:16:03;;;;;;;4.78;1.75;;;22.90;71.90;;;;;;4976328;28;20213;-68
2022/05/08 11:18:30;;;;;;;3.42;2.10;;;23.30;69.70;;;;;;4975561;28;20223;-69
2022/05/08 11:21:00;;;;;;;1.70;1.60;;;23.70;67.70;;;;;;4975022;28;20273;-70
2022/05/08 11:23:30;;;;;;;2.80;2.40;;;24.20;67.50;;;;;;4976261;28;20221;-69
2022/05/08 11:25:58;;;;;;;3.22;1.60;;;24.70;64.80;;;;;;4976584;28;20209;-69
2022/05/08 11:28:26;;;;;;;4.30;1.90;;;25.00;63.80;;;;;;4974431;28;20715;-67
2022/05/08 11:30:54;;;;;;;4.38;1.75;;;25.40;62.10;;;;;;4971556;28;20292;-68
2022/05/08 11:36:23;;;;;;;5.95;2.08;;;25.90;61.70;;;;;;4976538;28;20240;-68
2022/05/08 11:38:52;;;;;;;4.15;2.05;;;26.40;61.30;;;;;;4973387;28;20239;-67
2022/05/08 11:41:20;;;;;;;1.85;1.70;;;26.70;59.50;;;;;;4976512;28;20618;-69
2022/05/08 11:43:49;;;;;;;3.75;1.63;;;26.90;58.40;;;;;;4975816;28;20308;-70
2022/05/08 11:46:17;;;;;;;1.75;1.60;;;27.10;57.60;;;;;;4971220;28;20209;-69
2022/05/08 11:48:46;;;;;;;2.25;1.90;;;27.20;56.90;;;;;;4978752;28;20224;-69
2022/05/08 11:51:14;;;;;;;3.20;1.60;;;27.10;56.70;;;;;;4973642;28;20204;-67
2022/05/08 11:53:46;;;;;;;2.58;1.38;;;27.00;56.30;;;;;;4972052;28;20295;-71
2022/05/08 11:56:38;;;;;;;2.83;1.77;;;26.70;56.00;;;;;;4961599;28;20202;-66
2022/05/08 11:59:15;;;;;;;4.35;1.70;;;26.40;56.30;;;;;;4945860;28;20665;-69
2022/05/08 12:01:49;;;;;;;1.63;1.42;;;26.20;56.30;;;;;;4969665;28;20619;-70
2022/05/08 12:04:24;;;;;;;2.20;1.60;;;26.10;57.00;;;;;;4970493;28;20215;-72
2022/05/08 12:07:06;;;;;;;2.60;1.40;;;26.00;57.20;;;;;;4979287;28;20212;-68
2022/05/08 12:09:36;;;;;;;2.42;1.63;;;25.90;56.80;;;;;;4970265;28;20299;-67
2022/05/08 12:12:23;;;;;;;2.78;1.67;;;25.90;56.80;;;;;;4969232;28;20740;-68
2022/05/08 12:14:50;;;;;;;2.28;1.30;;;25.90;56.40;;;;;;4962175;28;20241;-68
2022/05/08 12:17:17;;;;;;;1.65;1.30;;;25.90;56.30;;;;;;4962205;28;20209;-67
2022/05/08 12:19:52;;;;;;;2.38;1.35;;;26.00;56.20;;;;;;4974914;28;20205;-68
2022/05/08 12:22:20;;;;;;;1.67;1.35;;;26.10;55.70;;;;;;4970823;28;20228;-68
2022/05/08 12:24:49;;;;;;;2.00;1.20;;;26.30;55.50;;;;;;4974872;28;20280;-68
2022/05/08 12:27:16;;;;;;;1.92;1.20;;;26.50;55.40;;;;;;4975538;28;20200;-68
2022/05/08 12:29:55;;;;;;;2.70;1.40;;;26.70;54.30;;;;;;4974042;28;20240;-68
2022/05/08 12:32:24;;;;;;;2.08;1.20;;;26.50;53.40;;;;;;4970536;28;20200;-69
2022/05/08 12:34:53;;;;;;;3.67;1.75;;;26.20;53.40;;;;;;4976350;28;20307;-68
2022/05/08 12:37:21;;;;;;;1.55;1.45;;;26.00;53.60;;;;;;4975177;28;20255;-69
2022/05/08 12:39:49;;;;;;;2.17;1.15;;;25.80;53.90;;;;;;4975192;28;20300;-68
2022/05/08 12:42:16;;;;;;;1.40;1.20;;;25.80;54.30;;;;;;4974868;28;20212;-68
2022/05/08 12:44:44;;;;;;;1.88;1.48;;;25.70;54.30;;;;;;4974451;28;20205;-67
2022/05/08 12:47:12;;;;;;;1.88;1.20;;;25.60;54.80;;;;;;4974343;28;20208;-68
2022/05/08 12:49:40;;;;;;;2.28;1.20;;;25.30;54.80;;;;;;4974527;28;20246;-70
2022/05/08 12:52:09;;;;;;;1.75;1.10;;;25.10;55.30;;;;;;4973932;28;20327;-69
2022/05/08 12:54:36;;;;;;;2.90;1.40;;;25.00;55.60;;;;;;4960257;28;20213;-68
2022/05/08 12:57:07;;;;;;;3.40;1.58;;;25.00;55.80;;;;;;4957261;28;20271;-68
2022/05/08 12:59:43;;;;;;;4.05;1.30;;;24.90;55.60;;;;;;4962799;28;20650;-68
2022/05/08 13:02:11;;;;;;;1.83;1.27;;;24.80;55.80;;;;;;4960189;28;20211;-69
2022/05/08 13:04:39;;;;;;;2.58;1.38;;;24.90;56.50;;;;;;4968431;28;20674;-68
2022/05/08 13:07:05;;;;;;;2.22;1.08;;;25.10;56.30;;;;;;4966810;28;20296;-68
2022/05/08 13:09:33;;;;;;;3.45;1.55;;;25.20;55.90;;;;;;4970166;28;20272;-68
2022/05/08 13:12:01;;;;;;;2.88;1.55;;;25.10;55.60;;;;;;4970315;28;20240;-68